Time;durP1;ratioP1;P1;durP2;ratioP2;P2;SDS_P1;SDS_P2;PMS_P1;PMS_P2;Temp;Humidity;BMP_temperature;BMP_pressure;BME280_temperature;BME280_humidity;BME280_pressure;Samples;Min_cycle;Max_cycle;Signal;HPM_P1;HPM_P2
2022/09/22 00:01:29;;;;;;;2.60;2.30;;;;;;;7.41;90.56;101024.52;87476;1285;22431;-70
2022/09/22 00:03:39;;;;;;;2.60;2.20;;;;;;;7.37;90.61;101020.77;87435;1288;22781;-68
2022/09/22 00:05:49;;;;;;;5.00;3.00;;;;;;;7.34;90.67;101018.89;87445;1285;22449;-68
2022/09/22 00:08:00;;;;;;;;;;;;;;;7.30;90.28;101018.60;87476;1300;22441;-70
2022/09/22 00:10:14;;;;;;;3.40;3.10;;;;;;;7.21;90.42;101020.45;87465;1275;23775;-72
2022/09/22 00:12:24;;;;;;;7.90;2.70;;;;;;;7.19;90.58;101019.45;87477;1301;22501;-71
2022/09/22 00:14:34;;;;;;;3.10;2.60;;;;;;;7.16;90.58;101016.89;87431;1301;22455;-70
2022/09/22 00:16:44;;;;;;;2.20;2.00;;;;;;;7.12;90.25;101020.06;87456;1286;25265;-69
2022/09/22 00:18:57;;;;;;;3.00;2.40;;;;;;;7.08;90.47;101019.07;87440;1301;22546;-69
2022/09/22 00:21:17;;;;;;;3.60;3.10;;;;;;;7.06;90.56;101021.18;87452;1280;22458;-72
2022/09/22 00:23:30;;;;;;;4.10;2.90;;;;;;;7.05;90.95;101018.42;87467;1288;25391;-68
2022/09/22 00:25:42;;;;;;;3.10;2.70;;;;;;;7.05;90.78;101019.81;87471;1299;23836;-70
2022/09/22 00:27:55;;;;;;;3.20;2.60;;;;;;;7.02;90.70;101021.58;87451;1285;22777;-68
2022/09/22 00:30:08;;;;;;;3.50;3.10;;;;;;;7.00;90.76;101020.05;87388;1301;22472;-68
2022/09/22 00:32:17;;;;;;;3.40;2.20;;;;;;;6.96;90.76;101018.18;87491;1307;23797;-72
2022/09/22 00:34:27;;;;;;;2.90;2.70;;;;;;;6.95;90.78;101020.10;87440;1283;22457;-70
2022/09/22 00:36:36;;;;;;;2.60;2.40;;;;;;;6.93;90.69;101021.17;87479;1284;22429;-70
2022/09/22 00:38:49;;;;;;;3.00;2.40;;;;;;;6.94;90.85;101020.63;87480;1284;22545;-72
2022/09/22 00:41:03;;;;;;;4.50;2.70;;;;;;;6.96;91.03;101024.09;87490;1286;25828;-70
2022/09/22 00:43:31;;;;;;;3.60;2.90;;;;;;;6.96;91.09;101021.83;87411;1306;24275;-70
2022/09/22 00:45:40;;;;;;;3.10;2.80;;;;;;;6.95;90.78;101020.28;87465;1301;25254;-70
2022/09/22 00:47:51;;;;;;;3.20;2.90;;;;;;;6.94;90.96;101019.60;87325;1284;22781;-71
2022/09/22 00:50:03;;;;;;;2.90;2.60;;;;;;;6.95;90.90;101018.73;87468;1277;22470;-70
2022/09/22 00:52:15;;;;;;;3.80;2.70;;;;;;;6.95;91.04;101013.35;87400;1285;23432;-69
2022/09/22 00:57:01;;;;;;;2.80;2.50;;;;;;;7.03;91.28;101013.77;87445;1300;24270;-67
2022/09/22 00:59:13;;;;;;;4.30;2.90;;;;;;;7.07;91.76;101011.64;87193;1304;22476;-68
2022/09/22 01:01:22;;;;;;;3.60;2.70;;;;;;;7.11;91.73;101007.59;87426;1280;22933;-70
2022/09/22 01:03:31;;;;;;;4.10;3.20;;;;;;;7.14;91.75;101005.98;87433;1283;22535;-67
2022/09/22 01:05:41;;;;;;;3.70;2.80;;;;;;;7.16;91.74;101012.04;87411;1284;22471;-68
2022/09/22 01:07:49;;;;;;;4.80;2.70;;;;;;;7.18;91.99;101015.64;87428;1269;25216;-68
2022/09/22 01:09:59;;;;;;;3.70;2.90;;;;;;;7.19;91.83;101016.67;87419;1275;22483;-68
2022/09/22 01:12:11;;;;;;;3.10;2.60;;;;;;;7.18;91.84;101017.72;87448;1285;22612;-67
2022/09/22 01:14:28;;;;;;;4.10;3.00;;;;;;;7.18;91.76;101019.46;87464;1289;22454;-67
2022/09/22 01:16:45;;;;;;;2.90;2.60;;;;;;;7.16;91.81;101012.20;87462;1300;22473;-72
2022/09/22 01:19:08;;;;;;;3.30;2.90;;;;;;;7.15;91.62;101013.43;87457;1282;22464;-71
2022/09/22 01:21:29;;;;;;;5.70;3.10;;;;;;;7.15;91.82;101012.76;87454;1288;22492;-70
2022/09/22 01:24:13;;;;;;;2.50;2.20;;;;;;;7.14;91.78;101013.97;87472;1276;22451;-70
2022/09/22 01:26:48;;;;;;;3.10;2.80;;;;;;;7.13;91.58;101015.89;87495;1296;22722;-70
2022/09/22 01:29:14;;;;;;;3.80;3.10;;;;;;;7.08;91.56;101018.39;87461;1301;25249;-70
2022/09/22 01:31:25;;;;;;;3.50;2.80;;;;;;;7.07;91.55;101023.08;87437;1276;22390;-69
2022/09/22 01:33:43;;;;;;;4.20;3.60;;;;;;;7.05;91.55;101024.33;87388;1301;22834;-68
2022/09/22 01:36:11;;;;;;;4.50;3.00;;;;;;;7.04;91.62;101025.55;87437;1301;22487;-68
2022/09/22 01:38:29;;;;;;;2.30;2.10;;;;;;;7.02;91.56;101025.74;87398;1301;23817;-68
2022/09/22 01:40:42;;;;;;;3.10;2.80;;;;;;;7.01;91.68;101024.55;87413;1302;22818;-69
2022/09/22 01:42:54;;;;;;;2.60;2.40;;;;;;;7.02;91.86;101025.23;87424;1275;22456;-72
2022/09/22 01:45:06;;;;;;;3.00;2.60;;;;;;;7.03;91.85;101025.04;87241;1302;25376;-72
2022/09/22 01:47:18;;;;;;;3.20;2.90;;;;;;;7.03;91.93;101025.02;87482;1279;22461;-68
2022/09/22 01:49:28;;;;;;;3.40;2.70;;;;;;;7.03;91.93;101023.30;87433;1283;22462;-69
2022/09/22 01:51:39;;;;;;;2.70;2.20;;;;;;;7.03;91.83;101023.65;87475;1276;23872;-70
2022/09/22 01:53:52;;;;;;;2.30;2.10;;;;;;;7.03;91.81;101023.64;87455;1301;24360;-70
2022/09/22 01:56:05;;;;;;;2.40;2.10;;;;;;;7.04;91.79;101020.34;87468;1300;22624;-70
2022/09/22 01:58:16;;;;;;;3.10;2.10;;;;;;;7.05;91.83;101023.64;87452;1282;22486;-70
2022/09/22 02:00:25;;;;;;;3.30;2.10;;;;;;;7.07;92.04;101023.77;87461;1300;22470;-71
2022/09/22 02:02:36;;;;;;;3.10;2.30;;;;;;;7.13;92.14;101026.46;87463;1286;22439;-70
2022/09/22 02:04:49;;;;;;;3.40;2.60;;;;;;;7.17;92.40;101031.10;87451;1292;23676;-70
2022/09/22 02:07:00;;;;;;;3.60;2.70;;;;;;;7.21;92.50;101026.20;87477;1280;23335;-69
2022/09/22 02:09:11;;;;;;;4.20;2.70;;;;;;;7.26;92.52;101028.38;87443;1286;22466;-70
2022/09/22 02:11:22;;;;;;;3.20;2.70;;;;;;;7.28;92.51;101024.87;87446;1276;22495;-70
2022/09/22 02:13:32;;;;;;;3.40;3.00;;;;;;;7.32;92.72;101022.90;87403;1300;24254;-68
2022/09/22 02:18:11;;;;;;;3.60;3.00;;;;;;;7.39;92.85;101015.35;87466;1277;25271;-71
2022/09/22 02:20:20;;;;;;;3.70;2.50;;;;;;;7.43;92.99;101015.27;87444;1300;22455;-72
2022/09/22 02:22:30;;;;;;;2.60;2.30;;;;;;;7.49;93.24;101018.85;87423;1304;22508;-69
2022/09/22 02:24:43;;;;;;;5.60;2.80;;;;;;;7.55;93.32;101012.69;87424;1301;24257;-68
2022/09/22 02:26:52;;;;;;;5.40;2.70;;;;;;;7.60;93.52;101012.60;87165;1285;358458;-70
2022/09/22 02:29:05;;;;;;;3.40;3.10;;;;;;;7.66;93.53;101010.23;87434;1300;22474;-70
2022/09/22 02:31:15;;;;;;;3.90;3.20;;;;;;;7.69;93.39;101009.16;87447;1285;22451;-70
2022/09/22 02:33:26;;;;;;;6.20;3.40;;;;;;;7.74;93.57;101010.47;87430;1288;22730;-70
2022/09/22 02:35:35;;;;;;;5.10;4.00;;;;;;;7.80;93.89;101010.54;87478;1293;22422;-70
2022/09/22 02:37:50;;;;;;;3.80;3.40;;;;;;;7.86;93.94;101013.05;87469;1286;22463;-68
2022/09/22 02:40:10;;;;;;;3.70;3.40;;;;;;;7.90;94.12;101015.95;87400;1282;22743;-68
2022/09/22 02:42:35;;;;;;;5.10;3.90;;;;;;;7.93;93.85;101020.40;87477;1300;22493;-69
2022/09/22 02:44:51;;;;;;;5.00;3.20;;;;;;;7.96;93.96;101018.09;87406;1300;22663;-68
2022/09/22 02:47:02;;;;;;;3.50;3.20;;;;;;;8.01;93.99;101018.53;87510;1283;22833;-69
2022/09/22 02:49:16;;;;;;;4.60;3.60;;;;;;;8.07;94.18;101017.05;87434;1300;22487;-69
2022/09/22 02:51:25;;;;;;;6.00;4.10;;;;;;;8.14;94.42;101018.83;87477;1295;22682;-69
2022/09/22 02:53:35;;;;;;;5.40;3.90;;;;;;;8.19;94.40;101019.60;87412;1282;22916;-70
2022/09/22 02:55:44;;;;;;;4.90;4.40;;;;;;;8.24;94.30;101017.08;87471;1284;23705;-68
2022/09/22 02:57:54;;;;;;;8.20;4.50;;;;;;;8.28;94.18;101017.54;87413;1288;22474;-69
2022/09/22 03:00:04;;;;;;;9.90;4.60;;;;;;;8.31;94.01;101017.13;87448;1279;22487;-69
2022/09/22 03:02:16;;;;;;;6.80;4.30;;;;;;;8.33;93.93;101019.03;87463;1288;22460;-69
2022/09/22 03:04:26;;;;;;;5.30;4.40;;;;;;;8.37;94.23;101020.19;87409;1300;22869;-68
2022/09/22 03:06:39;;;;;;;5.10;4.10;;;;;;;8.44;94.41;101022.50;87249;1304;22492;-70
2022/09/22 03:08:47;;;;;;;6.00;4.40;;;;;;;8.47;94.19;101023.30;87455;1279;25381;-71
2022/09/22 03:10:56;;;;;;;6.80;5.60;;;;;;;8.52;94.36;101021.47;87435;1276;24343;-70
2022/09/22 03:13:07;;;;;;;8.10;5.80;;;;;;;8.56;94.17;101022.62;87454;1300;22487;-70
2022/09/22 03:15:17;;;;;;;6.10;5.40;;;;;;;8.59;94.35;101024.99;87463;1291;25871;-70
2022/09/22 03:17:28;;;;;;;;;;;;;;;8.61;94.17;101024.25;87473;1284;23767;-68
2022/09/22 03:19:38;;;;;;;7.30;6.60;;;;;;;8.61;94.27;101021.30;87466;1275;22478;-68
2022/09/22 03:21:47;;;;;;;7.40;6.20;;;;;;;8.59;94.07;101014.91;87432;1297;22458;-70
2022/09/22 03:23:56;;;;;;;7.60;6.90;;;;;;;8.57;93.89;101018.06;87457;1300;24253;-71
2022/09/22 03:26:05;;;;;;;7.60;6.40;;;;;;;8.58;94.00;101017.38;87448;1286;22583;-71
2022/09/22 03:28:18;;;;;;;6.40;5.80;;;;;;;8.60;94.18;101018.20;87488;1300;22463;-70
2022/09/22 03:30:29;;;;;;;6.90;5.80;;;;;;;8.62;94.32;101016.58;87466;1300;22477;-72
2022/09/22 03:32:38;;;;;;;6.70;6.10;;;;;;;8.68;94.70;101015.77;87483;1282;22682;-69
2022/09/22 03:34:46;;;;;;;7.00;6.30;;;;;;;8.72;94.64;101015.52;87418;1281;22579;-70
2022/09/22 03:36:57;;;;;;;6.00;5.40;;;;;;;8.75;94.54;101017.17;87431;1303;22455;-70
2022/09/22 03:39:06;;;;;;;7.80;7.10;;;;;;;8.78;94.68;101015.04;87472;1281;24257;-69
2022/09/22 03:41:22;;;;;;;7.00;6.30;;;;;;;8.83;94.56;101011.31;87450;1291;25364;-69
2022/09/22 03:43:30;;;;;;;7.90;6.90;;;;;;;8.84;94.32;101015.80;87370;1292;25385;-70
2022/09/22 03:45:39;;;;;;;6.50;5.70;;;;;;;8.82;94.07;101013.91;87467;1282;23853;-68
2022/09/22 03:47:48;;;;;;;7.30;6.50;;;;;;;8.82;94.16;101014.25;87231;1303;22476;-69
2022/09/22 03:49:57;;;;;;;7.30;6.70;;;;;;;8.83;94.16;101015.98;87217;1300;22638;-69
2022/09/22 03:52:08;;;;;;;7.70;5.40;;;;;;;8.86;94.38;101018.02;87444;1300;22463;-70
2022/09/22 03:54:16;;;;;;;6.70;5.70;;;;;;;8.88;94.18;101017.30;87455;1300;22705;-72
2022/09/22 03:56:25;;;;;;;7.70;6.10;;;;;;;8.90;94.26;101016.52;87509;1281;24243;-72
2022/09/22 03:58:34;;;;;;;6.30;5.70;;;;;;;8.91;94.16;101018.25;87456;1269;24222;-70
2022/09/22 04:00:42;;;;;;;6.50;5.90;;;;;;;8.91;94.03;101021.91;87241;1282;22583;-71
2022/09/22 04:02:51;;;;;;;6.80;6.20;;;;;;;8.89;94.10;101025.77;87448;1276;23951;-70
2022/09/22 04:05:00;;;;;;;6.60;6.00;;;;;;;8.88;94.03;101026.50;87458;1282;22467;-70
2022/09/22 04:07:09;;;;;;;6.30;5.50;;;;;;;8.88;94.00;101029.11;87458;1286;22401;-70
2022/09/22 04:09:18;;;;;;;5.20;4.70;;;;;;;8.87;93.97;101027.05;87443;1300;22768;-70
2022/09/22 04:11:27;;;;;;;6.40;5.70;;;;;;;8.88;94.12;101029.83;87478;1300;22499;-69
2022/09/22 04:13:35;;;;;;;6.00;5.30;;;;;;;8.89;94.14;101029.95;87436;1283;25257;-69
2022/09/22 04:15:44;;;;;;;6.40;5.70;;;;;;;8.91;94.10;101028.88;87446;1300;22544;-69
2022/09/22 04:17:54;;;;;;;6.30;5.60;;;;;;;8.92;94.25;101025.38;87457;1282;22502;-69
2022/09/22 04:20:07;;;;;;;7.40;6.50;;;;;;;8.96;94.49;101026.15;87417;1282;23736;-68
2022/09/22 04:22:18;;;;;;;6.60;5.90;;;;;;;8.99;94.40;101027.13;87497;1285;25224;-68
2022/09/22 04:24:31;;;;;;;6.80;5.40;;;;;;;9.00;94.15;101031.80;87424;1282;25381;-67
2022/09/22 04:26:43;;;;;;;7.70;5.80;;;;;;;8.97;94.13;101028.91;87478;1300;22778;-69
2022/09/22 04:28:53;;;;;;;9.50;5.90;;;;;;;8.99;93.97;101033.92;87432;1275;22458;-67
2022/09/22 04:31:02;;;;;;;9.40;5.60;;;;;;;8.98;94.03;101032.71;87479;1300;22472;-69
2022/09/22 04:33:11;;;;;;;8.00;5.30;;;;;;;8.98;93.85;101029.40;87442;1282;25232;-68
2022/09/22 04:35:22;;;;;;;6.70;5.50;;;;;;;8.98;93.91;101029.96;87415;1301;22460;-68
2022/09/22 04:37:31;;;;;;;8.00;6.40;;;;;;;9.01;94.17;101032.49;87405;1291;22698;-67
2022/09/22 04:39:40;;;;;;;6.80;6.20;;;;;;;9.04;94.31;101035.56;87433;1281;25214;-68
2022/09/22 04:41:49;;;;;;;6.50;6.00;;;;;;;9.07;94.40;101037.08;87402;1286;26026;-70
2022/09/22 04:43:58;;;;;;;6.20;5.60;;;;;;;9.06;94.22;101038.99;87432;1295;22459;-72
2022/09/22 04:46:07;;;;;;;6.30;5.80;;;;;;;9.07;94.27;101036.72;87228;1272;22559;-72
2022/09/22 04:48:15;;;;;;;8.00;5.70;;;;;;;9.08;94.17;101038.27;87449;1282;25310;-70
2022/09/22 04:50:25;;;;;;;6.10;5.10;;;;;;;9.07;94.07;101040.55;87456;1277;22431;-71
2022/09/22 04:52:33;;;;;;;6.10;5.50;;;;;;;9.07;94.33;101041.77;87463;1296;22472;-67
2022/09/22 04:54:46;;;;;;;5.90;5.30;;;;;;;9.10;94.33;101040.84;87403;1300;22457;-68
2022/09/22 04:56:59;;;;;;;7.50;5.50;;;;;;;9.13;94.54;101038.35;87363;1286;24246;-70
2022/09/22 04:59:08;;;;;;;5.80;4.80;;;;;;;9.18;94.61;101040.14;87429;1294;25404;-70
2022/09/22 05:01:17;;;;;;;7.70;5.80;;;;;;;9.20;94.43;101041.48;87434;1282;22851;-70
2022/09/22 05:03:26;;;;;;;6.00;5.50;;;;;;;9.21;94.42;101039.38;87431;1300;22465;-72
2022/09/22 05:05:37;;;;;;;6.60;5.80;;;;;;;9.22;94.37;101038.14;87440;1295;24366;-70
2022/09/22 05:07:47;;;;;;;7.10;6.50;;;;;;;9.23;94.20;101039.16;87448;1291;22485;-70
2022/09/22 05:09:56;;;;;;;6.60;6.00;;;;;;;9.24;94.29;101037.75;87462;1276;22471;-70
2022/09/22 05:12:06;;;;;;;6.30;5.70;;;;;;;9.26;94.22;101036.65;87468;1284;22494;-70
2022/09/22 05:14:23;;;;;;;5.90;5.30;;;;;;;9.27;94.29;101036.09;87425;1291;22472;-70
2022/09/22 05:16:33;;;;;;;6.80;5.80;;;;;;;9.31;94.28;101033.41;87297;1303;22850;-69
2022/09/22 05:18:45;;;;;;;6.80;5.80;;;;;;;9.36;94.30;101036.44;87463;1282;22491;-69
2022/09/22 05:20:59;;;;;;;6.80;6.20;;;;;;;9.40;94.35;101040.17;87440;1300;22451;-68
2022/09/22 05:23:10;;;;;;;10.20;6.40;;;;;;;9.42;94.38;101043.61;87415;1303;22603;-70
2022/09/22 05:25:23;;;;;;;7.10;5.60;;;;;;;9.44;94.06;101044.09;87191;1304;22456;-72
2022/09/22 05:27:37;;;;;;;5.60;5.10;;;;;;;9.43;94.14;101046.90;87480;1289;25214;-67
2022/09/22 05:29:48;;;;;;;10.60;5.10;;;;;;;9.44;94.07;101046.54;87447;1282;22463;-69
2022/09/22 05:32:01;;;;;;;5.90;5.40;;;;;;;9.45;94.05;101049.96;87453;1293;22716;-70
2022/09/22 05:34:11;;;;;;;5.70;5.10;;;;;;;9.45;93.90;101050.16;87291;1301;22727;-72
2022/09/22 05:36:21;;;;;;;5.20;4.80;;;;;;;9.46;93.96;101054.68;87433;1282;25390;-71
2022/09/22 05:38:30;;;;;;;7.10;5.00;;;;;;;9.50;94.37;101054.91;87432;1300;22430;-71
2022/09/22 05:40:39;;;;;;;7.50;5.50;;;;;;;9.56;94.24;101053.57;87436;1282;22466;-70
2022/09/22 05:42:48;;;;;;;6.40;5.80;;;;;;;9.60;94.35;101055.56;87488;1282;22749;-70
2022/09/22 05:44:57;;;;;;;7.90;5.70;;;;;;;9.62;94.14;101059.00;87458;1300;22455;-72
2022/09/22 05:47:06;;;;;;;7.00;6.40;;;;;;;9.61;93.91;101055.03;87458;1269;22457;-71
2022/09/22 05:49:14;;;;;;;7.00;5.60;;;;;;;9.60;93.82;101057.66;87445;1300;22553;-71
2022/09/22 05:51:23;;;;;;;8.00;7.30;;;;;;;9.61;93.91;101056.77;87473;1282;22468;-69
2022/09/22 05:53:32;;;;;;;6.20;5.60;;;;;;;9.65;94.27;101059.30;87257;1271;22477;-70
2022/09/22 05:55:41;;;;;;;6.20;5.70;;;;;;;9.68;93.95;101060.61;87479;1272;22451;-70
2022/09/22 05:57:52;;;;;;;8.60;5.30;;;;;;;9.70;93.75;101060.04;87487;1280;22468;-67
2022/09/22 06:00:01;;;;;;;6.30;5.70;;;;;;;9.75;94.12;101060.62;87456;1300;23846;-70
2022/09/22 06:02:10;;;;;;;6.30;5.70;;;;;;;9.79;93.91;101060.17;87466;1283;24257;-69
2022/09/22 06:04:19;;;;;;;6.90;5.90;;;;;;;9.79;93.63;101059.98;87439;1282;22463;-68
2022/09/22 06:06:31;;;;;;;9.50;5.60;;;;;;;9.79;93.73;101060.86;87449;1278;22474;-70
2022/09/22 06:08:41;;;;;;;6.60;5.90;;;;;;;9.79;93.57;101057.36;87459;1291;22798;-68
2022/09/22 06:10:52;;;;;;;6.30;5.30;;;;;;;9.78;93.48;101057.73;87458;1282;25375;-67
2022/09/22 06:13:05;;;;;;;6.20;5.60;;;;;;;9.82;93.92;101056.26;87444;1282;22492;-68
2022/09/22 06:15:16;;;;;;;6.60;5.70;;;;;;;9.86;93.86;101054.27;87468;1300;22438;-70
2022/09/22 06:17:27;;;;;;;7.40;5.50;;;;;;;9.91;93.96;101058.33;87505;1274;22512;-70
2022/09/22 06:20:10;;;;;;;8.60;6.10;;;;;;;9.98;94.16;101059.36;87454;1293;23721;-68
2022/09/22 06:23:24;;;;;;;6.40;5.90;;;;;;;10.06;93.93;101062.67;87054;1301;24246;-69
2022/09/22 06:26:10;;;;;;;6.10;5.60;;;;;;;10.13;93.79;101066.48;87243;1301;24207;-68
2022/09/22 06:28:18;;;;;;;6.50;5.80;;;;;;;10.13;93.64;101065.09;87450;1282;22473;-70
2022/09/22 06:30:27;;;;;;;6.30;5.70;;;;;;;10.16;93.64;101060.84;87425;1276;22787;-72
2022/09/22 06:32:38;;;;;;;6.60;6.10;;;;;;;10.20;93.72;101056.73;87472;1300;22752;-68
2022/09/22 06:34:47;;;;;;;6.50;5.90;;;;;;;10.26;93.85;101059.91;87428;1300;22470;-69
2022/09/22 06:36:56;;;;;;;6.10;5.40;;;;;;;10.31;93.74;101061.88;87434;1300;24238;-69
2022/09/22 06:39:09;;;;;;;5.70;5.20;;;;;;;10.33;93.36;101060.07;87441;1276;22484;-72
2022/09/22 06:41:18;;;;;;;5.90;5.30;;;;;;;10.37;93.43;101065.21;87455;1300;22479;-71
2022/09/22 06:43:27;;;;;;;8.20;5.80;;;;;;;10.43;93.74;101060.34;87204;1298;22862;-70
2022/09/22 06:45:36;;;;;;;6.80;6.10;;;;;;;10.49;93.49;101063.50;87463;1282;22481;-70
2022/09/22 06:47:45;;;;;;;8.50;5.60;;;;;;;10.54;93.82;101065.11;87485;1298;22473;-71
2022/09/22 06:49:53;;;;;;;5.60;4.70;;;;;;;10.64;93.77;101070.27;87478;1271;22440;-70
2022/09/22 06:52:02;;;;;;;5.40;5.00;;;;;;;10.71;93.55;101075.30;87470;1300;22455;-69
2022/09/22 06:54:11;;;;;;;5.30;4.70;;;;;;;10.73;92.77;101077.33;87428;1281;22552;-69
2022/09/22 06:56:24;;;;;;;6.10;4.40;;;;;;;10.76;92.72;101076.05;87435;1300;22492;-70
2022/09/22 06:58:33;;;;;;;4.60;4.00;;;;;;;10.80;92.59;101076.79;87434;1281;22479;-70
2022/09/22 07:00:43;;;;;;;4.40;4.10;;;;;;;10.91;93.19;101077.02;87450;1283;22494;-69
2022/09/22 07:02:52;;;;;;;5.60;4.60;;;;;;;11.00;92.65;101073.08;87465;1288;25944;-68
2022/09/22 07:05:01;;;;;;;6.20;4.50;;;;;;;11.04;92.41;101076.13;87436;1300;22464;-68
2022/09/22 07:07:09;;;;;;;5.70;5.20;;;;;;;11.11;92.42;101078.54;87460;1300;22441;-72
2022/09/22 07:09:18;;;;;;;5.80;5.20;;;;;;;11.15;92.35;101073.88;87445;1288;22461;-70
2022/09/22 07:11:27;;;;;;;6.50;4.70;;;;;;;11.28;93.01;101074.38;87199;1303;22741;-70
2022/09/22 07:13:38;;;;;;;6.50;4.20;;;;;;;11.40;92.31;101078.91;87444;1281;22457;-69
2022/09/22 07:15:47;;;;;;;4.80;3.80;;;;;;;11.47;91.71;101072.58;87449;1278;22448;-69
2022/09/22 07:17:56;;;;;;;4.30;3.60;;;;;;;11.55;91.62;101078.97;87432;1282;22459;-69
2022/09/22 07:20:07;;;;;;;6.50;4.30;;;;;;;11.60;91.51;101073.38;87418;1281;25349;-70
2022/09/22 07:22:18;;;;;;;5.40;4.00;;;;;;;11.68;91.15;101076.81;87458;1296;22570;-70
2022/09/22 07:24:26;;;;;;;4.60;4.20;;;;;;;11.72;90.65;101078.95;87461;1295;22455;-68
2022/09/22 07:26:36;;;;;;;4.60;4.20;;;;;;;11.77;89.87;101075.85;87463;1282;22464;-69
2022/09/22 07:28:49;;;;;;;4.60;4.20;;;;;;;11.77;89.82;101077.06;87492;1282;22419;-68
2022/09/22 07:31:02;;;;;;;5.00;4.00;;;;;;;11.83;89.88;101076.90;87444;1300;22526;-67
2022/09/22 07:33:11;;;;;;;4.30;3.90;;;;;;;11.92;89.97;101072.77;87431;1282;22459;-68
2022/09/22 07:35:19;;;;;;;4.40;4.10;;;;;;;12.01;89.69;101074.39;87406;1300;24251;-70
2022/09/22 07:37:32;;;;;;;5.50;4.70;;;;;;;12.14;90.08;101075.72;87475;1281;22463;-68
2022/09/22 07:39:45;;;;;;;3.90;3.50;;;;;;;12.34;90.22;101075.37;87454;1292;22433;-70
2022/09/22 07:41:54;;;;;;;3.80;3.40;;;;;;;12.54;89.37;101077.70;87490;1300;22465;-72
2022/09/22 07:46:26;;;;;;;4.70;4.20;;;;;;;12.87;88.82;101077.38;87443;1300;22472;-70
2022/09/22 07:48:44;;;;;;;4.60;4.20;;;;;;;13.10;88.96;101078.80;87451;1276;25421;-70
2022/09/22 07:50:59;;;;;;;5.10;4.50;;;;;;;13.30;87.28;101073.73;87445;1277;22451;-70
2022/09/22 07:53:07;;;;;;;4.60;4.20;;;;;;;13.37;86.09;101072.20;87469;1300;24421;-68
2022/09/22 07:55:16;;;;;;;4.20;3.80;;;;;;;13.48;86.05;101075.84;87434;1300;24243;-68
2022/09/22 07:57:25;;;;;;;4.10;3.70;;;;;;;13.57;84.80;101071.98;87454;1276;24252;-70
2022/09/22 07:59:34;;;;;;;4.70;3.60;;;;;;;13.59;84.20;101069.23;87441;1282;22429;-72
2022/09/22 08:01:46;;;;;;;3.90;3.60;;;;;;;13.66;83.97;101070.19;87455;1295;23667;-69
2022/09/22 08:03:56;;;;;;;5.00;4.50;;;;;;;13.77;84.12;101069.95;87230;1303;24222;-69
2022/09/22 08:06:09;;;;;;;5.00;4.30;;;;;;;13.90;84.44;101072.05;87426;1300;23782;-70
2022/09/22 08:08:19;;;;;;;9.00;4.50;;;;;;;14.08;83.75;101071.15;87472;1267;22457;-68
2022/09/22 08:10:28;;;;;;;4.60;4.00;;;;;;;14.12;82.79;101073.08;87223;1303;22496;-68
2022/09/22 08:12:37;;;;;;;6.00;5.40;;;;;;;14.17;82.66;101073.05;87466;1300;22471;-69
2022/09/22 08:14:46;;;;;;;5.40;5.00;;;;;;;14.31;82.73;101070.72;87450;1300;22473;-68
2022/09/22 08:16:56;;;;;;;6.40;5.00;;;;;;;14.53;82.95;101069.06;87505;1300;21818;-70
2022/09/22 08:19:09;;;;;;;;;;;;;;;14.82;81.63;101069.92;87478;1286;22438;-71
2022/09/22 08:21:19;;;;;;;5.10;4.60;;;;;;;14.94;81.38;101070.63;87489;1300;24267;-72
2022/09/22 08:23:30;;;;;;;5.80;4.40;;;;;;;15.11;79.91;101069.31;87428;1269;25303;-69
2022/09/22 08:25:40;;;;;;;5.00;4.20;;;;;;;15.23;79.71;101070.16;87463;1300;22484;-68
2022/09/22 08:27:59;;;;;;;6.80;5.30;;;;;;;15.66;80.11;101068.70;87482;1268;22588;-69
2022/09/22 08:30:18;;;;;;;4.30;4.00;;;;;;;16.11;80.00;101070.02;87480;1300;24402;-69
2022/09/22 08:32:30;;;;;;;3.90;3.60;;;;;;;16.51;78.17;101072.39;87467;1288;22456;-70
2022/09/22 08:34:41;;;;;;;4.00;3.50;;;;;;;16.78;76.61;101071.73;87485;1276;22465;-70
2022/09/22 08:36:50;;;;;;;5.10;3.80;;;;;;;16.98;75.77;101069.82;87474;1300;22587;-71
2022/09/22 08:38:59;;;;;;;4.00;3.60;;;;;;;17.17;74.57;101069.30;87421;1296;22520;-72
2022/09/22 08:41:19;;;;;;;3.50;3.30;;;;;;;17.32;73.52;101064.41;87438;1294;22472;-68
2022/09/22 08:43:30;;;;;;;4.50;3.00;;;;;;;17.46;72.00;101067.30;87478;1269;22475;-71
2022/09/22 08:45:43;;;;;;;3.80;3.50;;;;;;;17.60;69.63;101067.09;87449;1282;25424;-71
2022/09/22 08:52:58;;;;;;;4.40;3.00;;;;;;;18.52;66.78;101065.63;87502;1298;25219;-71
2022/09/22 08:55:10;;;;;;;3.60;3.30;;;;;;;18.74;66.95;101064.52;87428;1269;23903;-71
2022/09/22 08:57:41;;;;;;;2.60;2.40;;;;;;;18.96;65.56;101064.06;87456;1285;22479;-72
2022/09/22 08:59:53;;;;;;;2.80;2.60;;;;;;;19.36;64.54;101060.62;87491;1277;24287;-72
2022/09/22 09:02:19;;;;;;;3.40;2.40;;;;;;;19.68;62.65;101058.63;87256;1291;22475;-71
2022/09/22 09:04:50;;;;;;;3.90;2.40;;;;;;;19.73;60.41;101055.28;87463;1300;25014;-72
2022/09/22 09:07:02;;;;;;;2.00;1.90;;;;;;;19.74;59.63;101049.55;87462;1300;24238;-70
2022/09/22 09:09:24;;;;;;;2.00;1.90;;;;;;;19.86;57.56;101052.64;87431;1300;24275;-70
2022/09/22 09:11:52;;;;;;;2.20;2.10;;;;;;;19.69;56.51;101049.70;87466;1288;24260;-73
2022/09/22 09:14:12;;;;;;;2.50;2.30;;;;;;;19.53;56.84;101052.82;87414;1282;24005;-69
2022/09/22 09:16:38;;;;;;;2.70;2.10;;;;;;;19.96;56.15;101046.80;87453;1285;22441;-69
2022/09/22 09:18:53;;;;;;;3.70;2.20;;;;;;;20.48;54.04;101041.73;87454;1300;22472;-72
2022/09/22 09:21:05;;;;;;;2.40;2.20;;;;;;;20.52;53.05;101040.42;87233;1298;22473;-73
2022/09/22 09:23:18;;;;;;;2.70;2.10;;;;;;;20.23;54.24;101031.92;87464;1282;22586;-70
2022/09/22 09:25:34;;;;;;;2.30;2.10;;;;;;;20.19;55.02;101035.02;87451;1281;24299;-70
2022/09/22 09:27:45;;;;;;;3.20;2.10;;;;;;;20.97;55.59;101035.85;87462;1300;24285;-70
2022/09/22 09:30:02;;;;;;;2.20;2.00;;;;;;;21.41;53.54;101034.11;87438;1300;22447;-70
2022/09/22 09:32:18;;;;;;;1.80;1.70;;;;;;;21.33;52.32;101034.55;87458;1300;22476;-71
2022/09/22 09:34:29;;;;;;;2.00;1.70;;;;;;;21.43;53.18;101029.23;87464;1284;22472;-72
2022/09/22 09:36:40;;;;;;;3.50;1.40;;;;;;;21.55;51.10;101028.87;87463;1300;22460;-71
2022/09/22 09:38:52;;;;;;;2.20;1.20;;;;;;;21.00;49.36;101028.36;87426;1288;22484;-72
2022/09/22 09:41:08;;;;;;;2.10;1.60;;;;;;;20.34;50.12;101033.48;87450;1298;22529;-72
2022/09/22 09:43:19;;;;;;;2.30;1.90;;;;;;;19.69;51.35;101033.56;87450;1282;22466;-69
2022/09/22 09:45:32;;;;;;;1.80;1.70;;;;;;;19.17;52.16;101033.76;87426;1300;22474;-69
2022/09/22 09:48:10;;;;;;;2.40;1.80;;;;;;;18.86;53.86;101033.92;87466;1288;22440;-70
2022/09/22 09:50:20;;;;;;;2.30;2.10;;;;;;;18.79;53.68;101031.89;87448;1295;22518;-70
2022/09/22 09:52:28;;;;;;;2.00;1.80;;;;;;;18.87;55.18;101030.81;87449;1286;22491;-71
2022/09/22 09:54:37;;;;;;;2.30;2.10;;;;;;;19.12;54.05;101023.99;87443;1300;24285;-71
2022/09/22 09:57:10;;;;;;;2.30;2.10;;;;;;;19.20;53.36;101027.89;87466;1274;22487;-71
2022/09/22 10:01:46;;;;;;;2.10;1.50;;;;;;;19.14;53.57;101024.19;87224;1295;25379;-70
2022/09/22 10:03:56;;;;;;;1.70;1.00;;;;;;;18.98;53.10;101026.92;87440;1300;22757;-69
2022/09/22 10:06:06;;;;;;;1.50;1.40;;;;;;;18.75;51.25;101032.67;87439;1291;22449;-68
2022/09/22 10:08:23;;;;;;;1.70;1.60;;;;;;;18.38;52.48;101031.50;87232;1302;22744;-71
2022/09/22 10:10:37;;;;;;;1.60;1.50;;;;;;;18.12;53.02;101027.41;87432;1294;22460;-70
2022/09/22 10:12:46;;;;;;;2.30;1.40;;;;;;;17.91;54.28;101028.13;87244;1303;22863;-70
2022/09/22 10:14:56;;;;;;;1.70;1.60;;;;;;;17.78;55.14;101026.73;87373;1303;22461;-70
2022/09/22 10:17:07;;;;;;;1.80;1.70;;;;;;;17.66;55.04;101027.59;87413;1302;24213;-70
2022/09/22 10:19:26;;;;;;;1.70;1.50;;;;;;;17.53;55.92;101026.20;87412;1282;22458;-70
2022/09/22 10:21:36;;;;;;;1.70;1.50;;;;;;;17.44;56.14;101029.14;87274;1297;23841;-71
2022/09/22 10:23:45;;;;;;;3.10;1.40;;;;;;;17.26;56.37;101033.50;87359;1288;22488;-71
2022/09/22 10:25:54;;;;;;;2.70;1.50;;;;;;;17.12;57.19;101029.20;87407;1303;24247;-74
2022/09/22 10:28:08;;;;;;;2.10;1.90;;;;;;;17.09;57.41;101026.52;86913;1284;648094;-70
2022/09/22 10:30:26;;;;;;;1.90;1.70;;;;;;;17.07;57.36;101030.86;87404;1284;22471;-70
2022/09/22 10:32:35;;;;;;;4.20;1.60;;;;;;;16.96;56.98;101029.01;87419;1281;22477;-70
2022/09/22 10:34:44;;;;;;;1.60;1.50;;;;;;;16.81;57.65;101027.36;87377;1282;22439;-70
2022/09/22 10:36:53;;;;;;;2.00;1.60;;;;;;;16.75;57.69;101025.73;87406;1282;22471;-71